createdAt,value
2019-03-29T00:02:24.305Z,23.17
2019-03-29T00:04:54.613Z,21.33
2019-03-29T00:07:38.608Z,22.63
2019-03-29T00:09:56.517Z,22.50
2019-03-29T00:12:26.525Z,22.73
2019-03-29T00:14:56.964Z,22.57
2019-03-29T00:17:27.044Z,22.13
2019-03-29T00:19:57.329Z,22.73
2019-03-29T00:22:27.220Z,22.53
2019-03-29T00:24:57.882Z,22.17
2019-03-29T00:27:27.973Z,21.23
2019-03-29T00:29:58.783Z,20.37
2019-03-29T00:32:29.152Z,20.80
2019-03-29T00:34:59.380Z,21.53
2019-03-29T00:37:30.297Z,20.00
2019-03-29T00:40:01.838Z,20.60
2019-03-29T00:42:31.850Z,20.27
2019-03-29T00:45:01.886Z,19.77
2019-03-29T00:47:31.920Z,18.83
2019-03-29T00:50:02.358Z,19.13
2019-03-29T00:52:33.089Z,19.87
2019-03-29T00:55:03.408Z,20.00
2019-03-29T00:57:33.313Z,19.77
2019-03-29T01:00:03.556Z,19.43
2019-03-29T01:02:33.947Z,18.63
2019-03-29T01:05:04.608Z,18.67
2019-03-29T01:07:34.929Z,19.03
2019-03-29T01:10:05.293Z,19.20
2019-03-29T01:12:35.294Z,18.97
2019-03-29T01:15:06.388Z,18.40
2019-03-29T01:17:36.428Z,18.20
2019-03-29T01:20:07.132Z,15.67
2019-03-29T01:22:37.077Z,14.87
2019-03-29T01:25:08.323Z,15.63
2019-03-29T01:27:38.624Z,16.13
2019-03-29T01:30:09.278Z,15.77
2019-03-29T01:32:39.274Z,14.57
2019-03-29T01:35:09.630Z,14.30
2019-03-29T01:37:39.617Z,14.23
2019-03-29T01:40:10.378Z,13.10
2019-03-29T01:42:40.280Z,12.73
2019-03-29T01:45:10.632Z,13.20
2019-03-29T01:47:40.961Z,19.33
2019-03-29T01:50:11.028Z,22.40
2019-03-29T01:52:41.042Z,17.53
2019-03-29T01:55:11.186Z,16.93
2019-03-29T01:57:42.065Z,15.53
2019-03-29T02:00:13.985Z,14.87
2019-03-29T02:02:43.909Z,14.63
2019-03-29T02:05:14.137Z,15.47
2019-03-29T02:07:44.153Z,14.73
2019-03-29T02:10:14.260Z,14.63
2019-03-29T02:12:44.185Z,15.60
2019-03-29T02:15:14.109Z,15.77
2019-03-29T02:17:44.049Z,15.53
2019-03-29T02:20:14.024Z,15.30
2019-03-29T02:22:44.364Z,14.67
2019-03-29T02:25:15.332Z,15.43
2019-03-29T02:27:46.085Z,15.17
2019-03-29T02:30:16.600Z,15.70
2019-03-29T02:32:46.505Z,14.37
2019-03-29T02:35:17.326Z,15.57
2019-03-29T02:37:47.554Z,14.83
2019-03-29T02:40:17.952Z,15.83
2019-03-29T02:42:48.684Z,15.43
2019-03-29T02:45:18.786Z,14.93
2019-03-29T02:47:49.424Z,16.93
2019-03-29T02:50:19.898Z,15.20
2019-03-29T02:52:49.942Z,16.40
2019-03-29T02:55:19.953Z,16.03
2019-03-29T02:57:50.325Z,15.10
2019-03-29T03:00:20.408Z,14.80
2019-03-29T03:02:50.408Z,15.60
2019-03-29T03:05:20.384Z,15.60
2019-03-29T03:07:50.387Z,16.37
2019-03-29T03:10:20.559Z,15.27
2019-03-29T03:12:50.554Z,15.73
2019-03-29T03:15:20.500Z,15.03
2019-03-29T03:17:50.510Z,15.13
2019-03-29T03:20:22.241Z,14.90
2019-03-29T03:22:52.506Z,15.17
2019-03-29T03:25:22.496Z,15.77
2019-03-29T03:27:52.806Z,15.67
2019-03-29T03:30:22.882Z,15.17
2019-03-29T03:32:53.350Z,16.13
2019-03-29T03:35:23.426Z,14.60
2019-03-29T03:37:53.538Z,16.10
2019-03-29T03:40:23.468Z,15.07
2019-03-29T03:42:53.722Z,15.30
2019-03-29T03:45:24.551Z,13.60
2019-03-29T03:47:54.528Z,14.43
2019-03-29T03:50:40.578Z,14.03
2019-03-29T03:53:11.114Z,13.67
2019-03-29T03:55:42.226Z,13.40
2019-03-29T03:58:13.329Z,13.80
2019-03-29T04:00:55.300Z,13.13
2019-03-29T04:03:25.636Z,13.13
2019-03-29T04:05:55.834Z,13.63
2019-03-29T04:08:27.675Z,13.30
2019-03-29T04:10:57.899Z,13.27
2019-03-29T04:13:27.975Z,13.63
2019-03-29T04:15:58.027Z,14.83
2019-03-29T04:18:27.994Z,13.50
2019-03-29T04:20:57.982Z,14.43
2019-03-29T04:23:28.429Z,14.63
2019-03-29T04:25:58.734Z,14.13
2019-03-29T04:28:28.718Z,14.17
2019-03-29T04:30:59.169Z,13.27
2019-03-29T04:33:29.528Z,13.30
2019-03-29T04:36:00.237Z,13.03
2019-03-29T04:38:30.213Z,14.13
2019-03-29T04:41:00.202Z,13.40
2019-03-29T04:43:30.198Z,13.33
2019-03-29T04:46:00.514Z,13.23
2019-03-29T04:48:30.576Z,13.37
2019-03-29T04:51:00.770Z,13.13
2019-03-29T04:53:30.768Z,13.93
2019-03-29T04:56:01.102Z,13.47
2019-03-29T04:58:31.454Z,12.83
2019-03-29T05:01:01.882Z,12.23
2019-03-29T05:03:32.193Z,12.37
2019-03-29T05:06:02.471Z,12.57
2019-03-29T05:08:33.492Z,12.93
2019-03-29T05:11:03.472Z,12.67
2019-03-29T05:13:33.497Z,13.43
2019-03-29T05:16:03.437Z,14.10
2019-03-29T05:18:33.465Z,12.77
2019-03-29T05:21:03.440Z,12.37
2019-03-29T05:23:33.411Z,11.93
2019-03-29T05:26:03.761Z,12.37
2019-03-29T05:28:33.849Z,12.17
2019-03-29T05:31:04.656Z,12.40
2019-03-29T05:33:34.833Z,11.77
2019-03-29T05:36:05.180Z,13.13
2019-03-29T05:38:35.563Z,12.80
2019-03-29T05:41:05.581Z,12.57
2019-03-29T05:43:35.482Z,13.13
2019-03-29T05:46:05.842Z,13.53
2019-03-29T05:48:36.492Z,13.20
2019-03-29T05:51:06.417Z,13.87
2019-03-29T05:53:36.417Z,14.20
2019-03-29T05:56:06.942Z,13.60
2019-03-29T05:58:36.918Z,13.17
2019-03-29T06:01:07.283Z,13.27
2019-03-29T06:03:37.265Z,13.67
2019-03-29T06:06:07.234Z,12.43
2019-03-29T06:08:37.238Z,13.07
2019-03-29T06:11:07.237Z,13.33
2019-03-29T06:13:37.158Z,13.23
2019-03-29T06:16:07.272Z,13.17
2019-03-29T06:18:38.833Z,14.57
2019-03-29T06:21:09.293Z,14.67
2019-03-29T06:23:39.898Z,14.07
2019-03-29T06:26:10.569Z,14.03
2019-03-29T06:28:41.401Z,14.17
2019-03-29T06:31:12.307Z,14.43
2019-03-29T06:33:44.496Z,14.23
2019-03-29T06:36:16.022Z,12.07
2019-03-29T06:38:47.265Z,12.47
2019-03-29T06:41:17.307Z,11.63
2019-03-29T06:43:47.322Z,11.57
2019-03-29T06:46:17.645Z,11.63
2019-03-29T06:48:48.105Z,11.23
2019-03-29T06:51:18.022Z,12.53
2019-03-29T06:53:48.719Z,12.00
2019-03-29T06:56:19.061Z,11.70
2019-03-29T06:58:49.997Z,12.23
2019-03-29T07:01:19.924Z,11.90
2019-03-29T07:03:50.100Z,11.80
2019-03-29T07:06:20.049Z,11.23
2019-03-29T07:08:51.035Z,11.57
2019-03-29T07:11:21.029Z,11.17
2019-03-29T07:13:57.230Z,10.00
2019-03-29T07:16:22.761Z,9.57
2019-03-29T07:18:53.386Z,9.10
2019-03-29T07:21:24.496Z,9.90
2019-03-29T07:23:54.941Z,9.53
2019-03-29T07:26:24.936Z,8.93
2019-03-29T07:28:55.198Z,9.27
2019-03-29T07:31:25.209Z,9.33
2019-03-29T07:33:55.570Z,9.40
2019-03-29T07:36:25.956Z,8.83
2019-03-29T07:38:55.857Z,9.00
2019-03-29T07:41:32.048Z,8.90
2019-03-29T07:43:57.408Z,9.30
2019-03-29T07:46:27.296Z,9.20
2019-03-29T07:48:57.664Z,8.73
2019-03-29T07:51:27.553Z,8.80
2019-03-29T07:53:58.130Z,9.07
2019-03-29T07:56:28.102Z,8.90
2019-03-29T07:58:58.098Z,8.73
2019-03-29T08:01:28.115Z,8.97
2019-03-29T08:03:58.416Z,9.10
2019-03-29T08:06:28.382Z,8.80
2019-03-29T08:08:58.748Z,9.43
2019-03-29T08:11:29.479Z,8.77
2019-03-29T08:13:59.469Z,8.70
2019-03-29T08:16:29.801Z,9.37
2019-03-29T08:18:59.800Z,8.67
2019-03-29T08:21:30.554Z,9.50
2019-03-29T08:24:02.312Z,8.60
2019-03-29T08:26:32.723Z,9.20
2019-03-29T08:29:02.697Z,8.70
2019-03-29T08:31:33.061Z,9.20
2019-03-29T08:34:03.812Z,9.10
2019-03-29T08:36:33.734Z,9.50
2019-03-29T08:39:05.150Z,9.60
2019-03-29T08:41:35.473Z,10.00
2019-03-29T08:44:05.376Z,9.80
2019-03-29T08:46:35.561Z,10.13
2019-03-29T08:49:05.857Z,8.87
2019-03-29T08:51:35.853Z,9.90
2019-03-29T08:54:05.801Z,10.13
2019-03-29T08:56:35.796Z,10.50
2019-03-29T08:59:05.793Z,9.83
2019-03-29T09:01:36.277Z,10.10
2019-03-29T09:04:06.263Z,9.73
2019-03-29T09:06:36.277Z,9.73
2019-03-29T09:09:08.266Z,9.23
2019-03-29T09:11:39.212Z,10.67
2019-03-29T09:14:09.229Z,9.97
2019-03-29T09:16:39.532Z,10.53
2019-03-29T09:19:10.568Z,9.70
2019-03-29T09:21:40.954Z,10.53
2019-03-29T09:24:21.733Z,10.63
2019-03-29T09:26:43.180Z,10.23
2019-03-29T09:29:13.184Z,9.80
2019-03-29T09:31:43.589Z,9.77
2019-03-29T09:34:14.185Z,10.27
2019-03-29T09:36:44.517Z,10.33
2019-03-29T09:39:14.835Z,9.97
2019-03-29T09:41:45.244Z,9.57
2019-03-29T09:44:15.169Z,9.63
2019-03-29T09:46:45.141Z,8.90
2019-03-29T09:49:15.066Z,9.97
2019-03-29T09:51:45.464Z,10.13
2019-03-29T09:54:15.817Z,9.87
2019-03-29T09:56:48.320Z,9.50
2019-03-29T09:59:18.462Z,9.43
2019-03-29T10:01:48.435Z,8.93
2019-03-29T10:04:18.480Z,8.97
2019-03-29T10:06:48.445Z,8.48
2019-03-29T10:09:18.391Z,8.10
2019-03-29T10:11:49.058Z,7.67
2019-03-29T10:14:19.101Z,7.73
2019-03-29T10:16:49.130Z,8.00
2019-03-29T10:19:19.965Z,7.30
2019-03-29T10:21:50.282Z,8.93
2019-03-29T10:24:20.316Z,8.03
2019-03-29T10:26:50.329Z,7.47
2019-03-29T10:29:20.221Z,7.55
2019-03-29T10:31:51.146Z,7.08
2019-03-29T10:34:21.525Z,7.12
2019-03-29T10:36:51.556Z,7.45
2019-03-29T10:39:22.219Z,7.35
2019-03-29T10:41:52.197Z,7.55
2019-03-29T10:44:22.121Z,7.40
2019-03-29T10:46:52.470Z,7.33
2019-03-29T10:49:23.309Z,7.10
2019-03-29T10:51:53.335Z,7.08
2019-03-29T10:54:23.853Z,8.03
2019-03-29T10:56:53.773Z,7.05
2019-03-29T10:59:27.776Z,6.90
2019-03-29T11:01:55.496Z,7.33
2019-03-29T11:04:25.525Z,6.90
2019-03-29T11:06:55.508Z,7.40
2019-03-29T11:09:25.821Z,6.60
2019-03-29T11:11:56.182Z,6.35
2019-03-29T11:14:26.385Z,6.10
2019-03-29T11:16:56.302Z,6.10
2019-03-29T11:19:26.244Z,6.60
2019-03-29T11:21:56.974Z,6.42
2019-03-29T11:24:27.223Z,6.35
2019-03-29T11:26:57.211Z,6.42
2019-03-29T11:29:27.885Z,6.22
2019-03-29T11:31:58.305Z,6.70
2019-03-29T11:34:28.751Z,6.55
2019-03-29T11:36:58.741Z,6.30
2019-03-29T11:39:28.997Z,6.22
2019-03-29T11:41:59.308Z,6.87
2019-03-29T11:44:30.733Z,6.03
2019-03-29T11:47:01.193Z,5.95
2019-03-29T11:49:31.230Z,6.92
2019-03-29T11:52:01.549Z,6.08
2019-03-29T11:54:31.868Z,6.37
2019-03-29T11:57:01.965Z,6.65
2019-03-29T11:59:32.306Z,6.40
2019-03-29T12:02:02.332Z,6.70
2019-03-29T12:04:32.745Z,6.55
2019-03-29T12:07:03.721Z,6.87
2019-03-29T12:09:34.102Z,6.12
2019-03-29T12:12:04.449Z,5.83
2019-03-29T12:14:34.423Z,6.45
2019-03-29T12:17:04.407Z,5.75
2019-03-29T12:19:34.592Z,5.78
2019-03-29T12:22:04.587Z,6.50
2019-03-29T12:24:51.359Z,6.22
2019-03-29T12:27:22.046Z,6.55
2019-03-29T12:29:52.782Z,6.12
2019-03-29T12:32:23.104Z,6.70
2019-03-29T12:34:53.100Z,6.85
2019-03-29T12:37:23.113Z,7.12
2019-03-29T12:39:53.549Z,6.58
2019-03-29T12:42:23.644Z,6.58
2019-03-29T12:44:53.641Z,6.45
2019-03-29T12:47:24.249Z,6.58
2019-03-29T12:50:16.851Z,7.05
2019-03-29T12:54:12.882Z,6.60
2019-03-29T12:56:21.409Z,6.30
2019-03-29T12:58:51.481Z,6.22
2019-03-29T13:01:22.022Z,6.15
2019-03-29T13:04:09.733Z,6.30
2019-03-29T13:06:40.613Z,6.28
2019-03-29T13:09:10.981Z,7.03
2019-03-29T13:11:40.970Z,6.30
2019-03-29T13:14:11.091Z,6.40
2019-03-29T13:16:41.541Z,5.62
2019-03-29T13:19:11.504Z,5.22
2019-03-29T13:21:41.773Z,6.35
2019-03-29T13:24:15.726Z,6.15
2019-03-29T13:26:44.044Z,6.37
2019-03-29T13:29:14.548Z,6.60
2019-03-29T13:31:44.528Z,6.65
2019-03-29T13:34:14.439Z,6.78
2019-03-29T13:36:45.332Z,6.62
2019-03-29T13:39:15.590Z,6.60
2019-03-29T13:41:45.673Z,6.53
2019-03-29T13:44:23.814Z,6.20
2019-03-29T13:46:47.333Z,6.00
2019-03-29T13:49:17.867Z,6.65
2019-03-29T13:51:48.542Z,6.62
2019-03-29T13:54:18.974Z,6.33
2019-03-29T13:56:49.041Z,6.80
2019-03-29T13:59:19.060Z,6.85
2019-03-29T14:01:49.063Z,6.00
2019-03-29T14:04:19.085Z,6.05
2019-03-29T14:06:49.369Z,6.50
2019-03-29T14:09:19.292Z,6.75
2019-03-29T14:11:49.188Z,6.55
2019-03-29T14:14:19.409Z,7.05
2019-03-29T14:16:49.310Z,6.40
2019-03-29T14:19:19.730Z,6.62
2019-03-29T14:21:49.977Z,7.72
2019-03-29T14:24:19.887Z,7.03
2019-03-29T14:26:49.889Z,6.95
2019-03-29T14:29:19.860Z,7.05
2019-03-29T14:31:49.923Z,6.67
2019-03-29T14:34:22.949Z,6.62
2019-03-29T14:36:53.763Z,6.58
2019-03-29T14:39:24.401Z,6.40
2019-03-29T14:41:55.033Z,6.80
2019-03-29T14:44:25.661Z,6.87
2019-03-29T14:46:56.906Z,6.45
2019-03-29T14:49:26.877Z,6.10
2019-03-29T14:51:57.397Z,5.80
2019-03-29T14:54:27.704Z,6.87
2019-03-29T14:56:58.007Z,6.45
2019-03-29T14:59:28.329Z,6.28
2019-03-29T15:01:58.649Z,6.00
2019-03-29T15:04:28.587Z,6.78
2019-03-29T15:06:58.917Z,6.12
2019-03-29T15:09:28.841Z,6.20
2019-03-29T15:11:59.212Z,7.00
2019-03-29T15:14:29.213Z,6.72
2019-03-29T15:16:59.473Z,6.22
2019-03-29T15:19:30.076Z,6.50
2019-03-29T15:22:01.178Z,6.15
2019-03-29T15:24:31.801Z,5.83
2019-03-29T15:27:01.737Z,5.67
2019-03-29T15:29:31.753Z,6.17
2019-03-29T15:32:02.549Z,6.95
2019-03-29T15:34:33.048Z,6.35
2019-03-29T15:37:03.041Z,6.60
2019-03-29T15:39:33.732Z,6.87
2019-03-29T15:42:03.744Z,6.85
2019-03-29T15:44:33.711Z,7.60
2019-03-29T15:47:03.983Z,6.10
2019-03-29T15:49:34.615Z,6.80
2019-03-29T15:52:05.139Z,6.97
2019-03-29T15:54:35.197Z,6.90
2019-03-29T15:57:05.897Z,6.42
2019-03-29T15:59:35.856Z,6.30
2019-03-29T16:02:06.337Z,5.87
2019-03-29T16:04:36.561Z,5.50
2019-03-29T16:07:06.562Z,5.87
2019-03-29T16:09:36.455Z,5.95
2019-03-29T16:12:06.374Z,6.05
2019-03-29T16:14:36.273Z,5.75
2019-03-29T16:17:06.209Z,5.75
2019-03-29T16:19:36.456Z,5.60
2019-03-29T16:22:06.653Z,5.97
2019-03-29T16:24:37.185Z,5.67
2019-03-29T16:27:07.236Z,5.60
2019-03-29T16:29:37.466Z,6.40
2019-03-29T16:32:07.781Z,6.20
2019-03-29T16:34:37.794Z,5.90
2019-03-29T16:37:07.906Z,5.50
2019-03-29T16:39:37.893Z,5.63
2019-03-29T16:42:07.861Z,5.93
2019-03-29T16:44:38.209Z,5.53
2019-03-29T16:47:08.908Z,6.07
2019-03-29T16:49:39.544Z,5.90
2019-03-29T16:52:10.342Z,5.87
2019-03-29T16:54:40.539Z,8.13
2019-03-29T16:57:10.522Z,6.92
2019-03-29T16:59:40.504Z,5.83
2019-03-29T17:02:10.857Z,6.23
2019-03-29T17:04:40.818Z,5.33
2019-03-29T17:07:11.680Z,6.07
2019-03-29T17:09:42.340Z,5.90
2019-03-29T17:12:12.315Z,6.37
2019-03-29T17:14:42.992Z,6.60
2019-03-29T17:17:14.065Z,6.80
2019-03-29T17:19:44.089Z,6.50
2019-03-29T17:22:14.148Z,7.17
2019-03-29T17:24:56.239Z,6.67
2019-03-29T17:27:17.186Z,6.77
2019-03-29T17:29:47.937Z,6.77
2019-03-29T17:32:21.403Z,7.10
2019-03-29T17:34:50.192Z,6.50
2019-03-29T17:37:20.417Z,7.33
2019-03-29T17:39:50.305Z,6.30
2019-03-29T17:42:20.553Z,6.60
2019-03-29T17:44:50.777Z,6.40
2019-03-29T17:47:21.533Z,6.83
2019-03-29T17:49:51.756Z,6.73
2019-03-29T17:52:22.825Z,6.60
2019-03-29T17:54:52.814Z,7.10
2019-03-29T17:57:23.071Z,6.70
2019-03-29T17:59:53.026Z,6.50
2019-03-29T18:02:23.353Z,6.77
2019-03-29T18:04:54.213Z,6.53
2019-03-29T18:07:24.825Z,6.07
2019-03-29T18:09:54.745Z,5.83
2019-03-29T18:12:24.689Z,6.23
2019-03-29T18:14:54.713Z,6.20
2019-03-29T18:17:24.893Z,6.33
2019-03-29T18:19:54.822Z,7.33
2019-03-29T18:22:25.164Z,7.90
2019-03-29T18:24:55.567Z,9.70
2019-03-29T18:27:25.574Z,9.60
2019-03-29T18:29:56.133Z,9.70
2019-03-29T18:32:26.134Z,8.00
2019-03-29T18:34:57.065Z,5.93
2019-03-29T18:37:27.831Z,5.80
2019-03-29T18:39:57.825Z,6.20
2019-03-29T18:42:28.458Z,5.93
2019-03-29T18:44:59.185Z,6.43
2019-03-29T18:47:29.811Z,6.43
2019-03-29T18:50:00.151Z,6.47
2019-03-29T18:52:30.289Z,6.10
2019-03-29T18:55:05.942Z,5.90
2019-03-29T18:57:35.913Z,5.93
2019-03-29T19:00:08.272Z,6.50
2019-03-29T19:02:38.708Z,6.10
2019-03-29T19:05:11.713Z,6.17
2019-03-29T19:07:41.625Z,6.33
2019-03-29T19:10:11.722Z,6.30
2019-03-29T19:12:41.829Z,5.90
2019-03-29T19:15:11.797Z,6.17
2019-03-29T19:17:42.033Z,6.37
2019-03-29T19:20:31.075Z,6.50
2019-03-29T19:23:15.860Z,6.00
2019-03-29T19:25:46.152Z,6.40
2019-03-29T19:28:16.379Z,6.33
2019-03-29T19:30:46.712Z,5.87
2019-03-29T19:33:18.963Z,6.40
2019-03-29T19:35:48.972Z,6.43
2019-03-29T19:38:18.906Z,6.40
2019-03-29T19:40:48.917Z,6.30
2019-03-29T19:43:18.908Z,6.67
2019-03-29T19:45:49.685Z,6.33
2019-03-29T19:48:19.977Z,6.60
2019-03-29T19:50:49.955Z,6.67
2019-03-29T19:53:20.097Z,6.50
2019-03-29T19:55:51.292Z,6.67
2019-03-29T19:58:21.944Z,6.80
2019-03-29T20:00:51.918Z,6.40
2019-03-29T20:03:22.728Z,6.70
2019-03-29T20:05:52.620Z,6.13
2019-03-29T20:08:23.434Z,6.70
2019-03-29T20:10:53.415Z,6.30
2019-03-29T20:13:23.419Z,6.23
2019-03-29T20:15:53.759Z,6.53
2019-03-29T20:18:24.110Z,6.63
2019-03-29T20:20:55.088Z,5.90
2019-03-29T20:23:25.412Z,6.10
2019-03-29T20:25:55.317Z,6.30
2019-03-29T20:28:25.265Z,6.43
2019-03-29T20:30:55.923Z,6.27
2019-03-29T20:33:27.009Z,5.90
2019-03-29T20:35:57.701Z,6.50
2019-03-29T20:38:27.906Z,6.03
2019-03-29T20:40:57.906Z,6.17
2019-03-29T20:43:27.879Z,6.80
2019-03-29T20:45:57.822Z,6.20
2019-03-29T20:48:28.101Z,6.40
2019-03-29T20:50:58.029Z,5.67
2019-03-29T20:53:28.549Z,6.27
2019-03-29T20:55:58.881Z,6.17
2019-03-29T20:58:29.222Z,5.73
2019-03-29T21:00:59.268Z,6.20
2019-03-29T21:03:29.537Z,6.60
2019-03-29T21:05:59.531Z,6.00
2019-03-29T21:08:29.429Z,6.80
2019-03-29T21:10:59.366Z,6.37
2019-03-29T21:13:29.748Z,6.20
2019-03-29T21:16:00.041Z,6.47
2019-03-29T21:18:30.261Z,6.23
2019-03-29T21:21:00.332Z,6.83
2019-03-29T21:23:30.311Z,6.10
2019-03-29T21:26:00.617Z,6.40
2019-03-29T21:28:30.564Z,6.63
2019-03-29T21:31:00.472Z,6.60
2019-03-29T21:33:30.989Z,6.77
2019-03-29T21:36:00.964Z,7.77
2019-03-29T21:38:30.887Z,7.00
2019-03-29T21:41:01.106Z,6.70
2019-03-29T21:43:31.045Z,6.93
2019-03-29T21:46:01.660Z,6.87
2019-03-29T21:48:32.748Z,6.80
2019-03-29T21:51:03.145Z,7.23
2019-03-29T21:53:33.392Z,6.73
2019-03-29T21:56:04.176Z,6.60
2019-03-29T21:58:34.115Z,7.30
2019-03-29T22:01:04.072Z,6.77
2019-03-29T22:03:34.016Z,6.90
2019-03-29T22:06:03.922Z,7.17
2019-03-29T22:08:33.926Z,7.30
2019-03-29T22:11:04.698Z,7.50
2019-03-29T22:13:35.077Z,6.80
2019-03-29T22:16:04.981Z,6.90
2019-03-29T22:18:38.054Z,7.00
2019-03-29T22:21:07.164Z,7.07
2019-03-29T22:23:38.369Z,8.57
2019-03-29T22:26:08.998Z,7.27
2019-03-29T22:28:39.246Z,7.93
2019-03-29T22:31:09.193Z,7.50
2019-03-29T22:33:39.405Z,7.60
2019-03-29T22:36:09.329Z,7.73
2019-03-29T22:38:39.747Z,7.93
2019-03-29T22:41:09.758Z,7.97
2019-03-29T22:43:40.247Z,7.97
2019-03-29T22:46:10.254Z,8.57
2019-03-29T22:48:51.703Z,7.67
2019-03-29T22:51:12.171Z,8.20
2019-03-29T22:53:42.491Z,8.23
2019-03-29T22:56:12.457Z,8.40
2019-03-29T22:58:42.735Z,7.87
2019-03-29T23:01:12.982Z,7.87
2019-03-29T23:03:43.001Z,7.80
2019-03-29T23:06:12.939Z,7.97
2019-03-29T23:08:43.011Z,8.00
2019-03-29T23:11:14.900Z,7.57
2019-03-29T23:13:44.876Z,8.17
2019-03-29T23:16:14.872Z,8.10
2019-03-29T23:18:44.767Z,8.40
2019-03-29T23:21:14.764Z,7.87
2019-03-29T23:23:44.661Z,7.67
2019-03-29T23:26:14.612Z,7.40
2019-03-29T23:28:44.596Z,8.17
2019-03-29T23:31:14.510Z,7.77
2019-03-29T23:33:44.845Z,8.03
2019-03-29T23:36:15.811Z,8.27
2019-03-29T23:38:46.497Z,7.37
2019-03-29T23:41:16.939Z,7.97
2019-03-29T23:43:47.234Z,6.73
2019-03-29T23:46:18.185Z,7.90
2019-03-29T23:48:48.456Z,7.17
2019-03-29T23:51:18.350Z,7.33
2019-03-29T23:53:49.229Z,7.30
2019-03-29T23:56:20.128Z,7.00
2019-03-29T23:58:50.973Z,7.50
